createdAt,value
2023-01-22T00:00:21.018Z,34
2023-01-22T00:01:20.922Z,38
2023-01-22T00:02:20.973Z,39
2023-01-22T00:03:20.955Z,40
2023-01-22T00:04:20.919Z,34
2023-01-22T00:05:20.925Z,40
2023-01-22T00:06:20.909Z,33
2023-01-22T00:07:20.912Z,39
2023-01-22T00:08:20.920Z,38
2023-01-22T00:09:20.925Z,35
2023-01-22T00:10:20.941Z,38
2023-01-22T00:11:20.979Z,34
2023-01-22T00:12:20.926Z,36
2023-01-22T00:13:20.909Z,36
2023-01-22T00:14:20.962Z,36
2023-01-22T00:15:20.930Z,38
2023-01-22T00:16:20.951Z,37
2023-01-22T00:17:20.922Z,35
2023-01-22T00:18:20.961Z,39
2023-01-22T00:19:20.929Z,37
2023-01-22T00:20:21.033Z,39
2023-01-22T00:21:20.999Z,43
2023-01-22T00:22:20.998Z,38
2023-01-22T00:23:20.909Z,35
2023-01-22T00:24:20.918Z,37
2023-01-22T00:25:20.912Z,36
2023-01-22T00:26:20.912Z,33
2023-01-22T00:27:20.922Z,34
2023-01-22T00:28:20.913Z,35
2023-01-22T00:29:20.921Z,36
2023-01-22T00:30:20.912Z,37
2023-01-22T00:31:20.984Z,34
2023-01-22T00:33:20.931Z,30
2023-01-22T00:34:20.931Z,34
2023-01-22T00:35:20.906Z,31
2023-01-22T00:36:20.920Z,31
2023-01-22T00:37:20.914Z,29
2023-01-22T00:38:20.918Z,36
2023-01-22T00:39:20.929Z,33
2023-01-22T00:42:20.937Z,31
2023-01-22T00:43:20.898Z,31
2023-01-22T00:44:20.911Z,31
2023-01-22T00:45:20.906Z,32
2023-01-22T00:46:21.031Z,30
2023-01-22T00:47:20.911Z,30
2023-01-22T00:48:20.909Z,29
2023-01-22T00:49:20.903Z,29
2023-01-22T00:50:20.909Z,31
2023-01-22T00:51:21.082Z,28
2023-01-22T00:52:20.902Z,32
2023-01-22T00:53:20.911Z,28
2023-01-22T00:54:20.906Z,29
2023-01-22T00:55:20.908Z,31
2023-01-22T00:56:21.047Z,31
2023-01-22T00:57:20.907Z,27
2023-01-22T00:58:20.917Z,27
2023-01-22T00:59:20.939Z,29
2023-01-22T01:00:20.913Z,26
2023-01-22T01:01:20.903Z,33
2023-01-22T01:02:20.950Z,27
2023-01-22T01:03:20.903Z,31
2023-01-22T01:04:20.924Z,30
2023-01-22T01:05:20.910Z,28
2023-01-22T01:06:20.902Z,31
2023-01-22T01:07:20.907Z,30
2023-01-22T01:08:20.906Z,27
2023-01-22T01:09:20.966Z,30
2023-01-22T01:10:21.026Z,30
2023-01-22T01:11:20.895Z,29
2023-01-22T01:12:20.908Z,26
2023-01-22T01:13:21.020Z,32
2023-01-22T01:14:20.917Z,30
2023-01-22T01:16:20.964Z,28
2023-01-22T01:17:20.893Z,32
2023-01-22T01:18:20.915Z,29
2023-01-22T01:19:20.908Z,27
2023-01-22T01:20:20.941Z,27
2023-01-22T01:21:20.904Z,27
2023-01-22T01:22:20.896Z,28
2023-01-22T01:23:20.905Z,26
2023-01-22T01:24:20.902Z,26
2023-01-22T01:25:20.898Z,30
2023-01-22T01:26:20.896Z,29
2023-01-22T01:27:20.917Z,28
2023-01-22T01:28:20.896Z,33
2023-01-22T01:29:20.899Z,34
2023-01-22T01:30:20.977Z,27
2023-01-22T01:31:21.125Z,25
2023-01-22T01:32:20.911Z,30
2023-01-22T01:33:20.905Z,33
2023-01-22T01:34:20.905Z,31
2023-01-22T01:35:23.288Z,31
2023-01-22T01:36:35.336Z,28
2023-01-22T01:37:20.913Z,31
2023-01-22T01:38:20.891Z,30
2023-01-22T01:39:20.896Z,30
2023-01-22T01:40:20.900Z,27
2023-01-22T01:41:20.888Z,27
2023-01-22T01:42:20.890Z,32
2023-01-22T01:43:20.896Z,29
2023-01-22T01:44:21.030Z,28
2023-01-22T01:45:20.907Z,27
2023-01-22T01:46:20.969Z,28
2023-01-22T01:47:20.911Z,26
2023-01-22T01:48:20.901Z,31
2023-01-22T01:49:20.898Z,30
2023-01-22T01:50:20.908Z,30
2023-01-22T01:51:21.022Z,27
2023-01-22T01:52:20.916Z,29
2023-01-22T01:53:20.904Z,29
2023-01-22T01:54:20.894Z,31
2023-01-22T01:55:20.893Z,28
2023-01-22T01:56:20.899Z,26
2023-01-22T01:57:20.907Z,27
2023-01-22T01:58:20.923Z,27
2023-01-22T02:01:20.895Z,24
2023-01-22T02:02:21.010Z,29
2023-01-22T02:04:21.283Z,28
2023-01-22T02:05:20.908Z,24
2023-01-22T02:06:20.898Z,26
2023-01-22T02:07:20.938Z,28
2023-01-22T02:08:20.901Z,24
2023-01-22T02:09:20.902Z,26
2023-01-22T02:10:20.887Z,27
2023-01-22T02:11:20.919Z,28
2023-01-22T02:12:20.903Z,24
2023-01-22T02:13:20.891Z,27
2023-01-22T02:14:20.897Z,26
2023-01-22T02:15:21.011Z,25
2023-01-22T02:16:20.934Z,24
2023-01-22T02:17:20.886Z,27
2023-01-22T02:18:20.893Z,31
2023-01-22T02:19:20.891Z,26
2023-01-22T02:21:20.884Z,28
2023-01-22T02:22:20.903Z,26
2023-01-22T02:23:20.883Z,26
2023-01-22T02:24:20.886Z,24
2023-01-22T02:25:20.907Z,26
2023-01-22T02:26:20.900Z,23
2023-01-22T02:27:20.895Z,25
2023-01-22T02:28:20.896Z,28
2023-01-22T02:29:20.905Z,24
2023-01-22T02:30:20.886Z,19
2023-01-22T02:31:21.008Z,26
2023-01-22T02:32:21.133Z,21
2023-01-22T02:33:20.886Z,21
2023-01-22T02:34:20.896Z,25
2023-01-22T02:35:20.893Z,22
2023-01-22T02:36:20.905Z,22
2023-01-22T02:37:20.891Z,22
2023-01-22T02:38:20.885Z,24
2023-01-22T02:39:20.893Z,24
2023-01-22T02:40:20.885Z,21
2023-01-22T02:41:20.900Z,20
2023-01-22T02:42:20.888Z,23
2023-01-22T02:43:20.887Z,20
2023-01-22T02:44:20.887Z,23
2023-01-22T02:45:20.887Z,22
2023-01-22T02:46:21.010Z,22
2023-01-22T02:47:20.881Z,22
2023-01-22T02:48:20.890Z,18
2023-01-22T02:49:20.909Z,18
2023-01-22T02:50:21.041Z,20
2023-01-22T02:51:20.923Z,21
2023-01-22T02:52:20.897Z,20
2023-01-22T02:53:20.879Z,18
2023-01-22T02:54:20.898Z,20
2023-01-22T02:55:20.886Z,19
2023-01-22T02:56:20.889Z,19
2023-01-22T02:57:20.884Z,21
2023-01-22T02:58:20.885Z,20
2023-01-22T02:59:20.882Z,17
2023-01-22T03:00:21.083Z,18
2023-01-22T03:01:21.041Z,18
2023-01-22T03:02:20.908Z,21
2023-01-22T03:03:20.893Z,20
2023-01-22T03:04:20.888Z,20
2023-01-22T03:05:20.879Z,21
2023-01-22T03:06:20.948Z,19
2023-01-22T03:07:20.903Z,15
2023-01-22T03:08:20.886Z,15
2023-01-22T03:09:20.878Z,17
2023-01-22T03:10:21.196Z,18
2023-01-22T03:11:20.889Z,20
2023-01-22T03:12:20.900Z,19
2023-01-22T03:13:20.889Z,18
2023-01-22T03:14:20.886Z,18
2023-01-22T03:16:20.905Z,20
2023-01-22T03:17:21.061Z,16
2023-01-22T03:18:20.879Z,16
2023-01-22T03:19:20.881Z,19
2023-01-22T03:20:20.883Z,15
2023-01-22T03:21:20.873Z,18
2023-01-22T03:23:20.885Z,17
2023-01-22T03:24:20.904Z,23
2023-01-22T03:25:20.910Z,21
2023-01-22T03:26:20.882Z,19
2023-01-22T03:27:20.888Z,19
2023-01-22T03:28:20.923Z,20
2023-01-22T03:29:20.871Z,17
2023-01-22T03:30:20.881Z,18
2023-01-22T03:31:21.075Z,18
2023-01-22T03:32:20.876Z,18
2023-01-22T03:33:20.884Z,16
2023-01-22T03:34:20.869Z,16
2023-01-22T03:35:20.878Z,19
2023-01-22T03:36:20.899Z,18
2023-01-22T03:37:20.866Z,19
2023-01-22T03:38:20.864Z,19
2023-01-22T03:39:20.871Z,17
2023-01-22T03:40:20.870Z,19
2023-01-22T03:41:20.871Z,18
2023-01-22T03:42:20.880Z,20
2023-01-22T03:43:20.905Z,16
2023-01-22T03:44:20.882Z,18
2023-01-22T03:45:20.884Z,17
2023-01-22T03:46:20.892Z,17
2023-01-22T03:47:20.873Z,20
2023-01-22T03:48:20.999Z,19
2023-01-22T03:49:20.885Z,21
2023-01-22T03:50:20.883Z,21
2023-01-22T03:51:20.930Z,20
2023-01-22T03:52:20.877Z,20
2023-01-22T03:53:20.871Z,17
2023-01-22T03:54:20.879Z,19
2023-01-22T03:55:20.884Z,21
2023-01-22T03:56:20.932Z,18
2023-01-22T03:57:20.862Z,20
2023-01-22T03:58:20.886Z,21
2023-01-22T03:59:20.875Z,19
2023-01-22T04:00:21.077Z,19
2023-01-22T04:01:21.018Z,22
2023-01-22T04:02:20.903Z,19
2023-01-22T04:03:20.871Z,18
2023-01-22T04:04:20.878Z,21
2023-01-22T04:05:20.878Z,21
2023-01-22T04:06:20.875Z,20
2023-01-22T04:07:20.893Z,22
2023-01-22T04:08:20.868Z,18
2023-01-22T04:09:20.877Z,22
2023-01-22T04:10:21.238Z,20
2023-01-22T04:11:20.867Z,21
2023-01-22T04:12:20.884Z,17
2023-01-22T04:13:20.874Z,20
2023-01-22T04:14:20.863Z,19
2023-01-22T04:15:20.857Z,18
2023-01-22T04:16:20.899Z,18
2023-01-22T04:17:20.861Z,21
2023-01-22T04:18:20.867Z,21
2023-01-22T04:20:20.919Z,23
2023-01-22T04:21:20.877Z,20
2023-01-22T04:22:20.860Z,21
2023-01-22T04:23:20.860Z,19
2023-01-22T04:24:20.870Z,21
2023-01-22T04:25:20.889Z,19
2023-01-22T04:26:20.860Z,19
2023-01-22T04:27:20.863Z,17
2023-01-22T04:28:20.877Z,20
2023-01-22T04:29:20.886Z,22
2023-01-22T04:31:20.994Z,27
2023-01-22T04:32:20.859Z,18
2023-01-22T04:33:20.860Z,22
2023-01-22T04:34:20.858Z,20
2023-01-22T04:35:20.883Z,20
2023-01-22T04:36:20.879Z,22
2023-01-22T04:37:20.862Z,24
2023-01-22T04:38:20.860Z,22
2023-01-22T04:39:20.856Z,23
2023-01-22T04:40:21.016Z,18
2023-01-22T04:41:20.865Z,23
2023-01-22T04:42:20.861Z,18
2023-01-22T04:43:20.866Z,20
2023-01-22T04:44:20.855Z,22
2023-01-22T04:45:20.867Z,23
2023-01-22T04:46:20.898Z,24
2023-01-22T04:47:20.856Z,22
2023-01-22T04:49:20.862Z,18
2023-01-22T04:50:21.098Z,21
2023-01-22T04:51:20.895Z,21
2023-01-22T04:52:20.864Z,23
2023-01-22T04:54:20.861Z,20
2023-01-22T04:55:20.899Z,22
2023-01-22T04:56:20.861Z,20
2023-01-22T04:57:20.859Z,24
2023-01-22T04:58:20.861Z,21
2023-01-22T04:59:20.875Z,20
2023-01-22T05:00:20.905Z,20
2023-01-22T05:01:20.921Z,21
2023-01-22T05:02:20.896Z,20
2023-01-22T05:03:20.858Z,23
2023-01-22T05:04:20.857Z,21
2023-01-22T05:05:20.859Z,21
2023-01-22T05:06:20.864Z,20
2023-01-22T05:07:20.863Z,19
2023-01-22T05:08:20.877Z,17
2023-01-22T05:09:20.861Z,21
2023-01-22T05:10:21.091Z,19
2023-01-22T05:11:20.930Z,22
2023-01-22T05:12:20.901Z,23
2023-01-22T05:13:20.917Z,22
2023-01-22T05:14:20.857Z,19
2023-01-22T05:15:24.836Z,20
2023-01-22T05:16:20.856Z,20
2023-01-22T05:17:20.872Z,21
2023-01-22T05:18:20.857Z,19
2023-01-22T05:19:20.865Z,19
2023-01-22T05:20:21.228Z,20
2023-01-22T05:21:20.976Z,18
2023-01-22T05:22:20.876Z,19
2023-01-22T05:23:20.852Z,21
2023-01-22T05:24:20.864Z,20
2023-01-22T05:25:20.856Z,20
2023-01-22T05:26:20.858Z,21
2023-01-22T05:27:20.859Z,21
2023-01-22T05:28:20.863Z,21
2023-01-22T05:29:20.867Z,20
2023-01-22T05:30:21.002Z,18
2023-01-22T05:31:20.985Z,19
2023-01-22T05:32:20.863Z,20
2023-01-22T05:33:20.898Z,23
2023-01-22T05:34:20.870Z,22
2023-01-22T05:35:20.891Z,19
2023-01-22T05:36:20.860Z,20
2023-01-22T05:37:20.860Z,20
2023-01-22T05:38:21.030Z,19
2023-01-22T05:39:23.817Z,20
2023-01-22T05:40:21.098Z,19
2023-01-22T05:41:20.851Z,18
2023-01-22T05:42:20.850Z,17
2023-01-22T05:43:20.850Z,16
2023-01-22T05:44:20.858Z,19
2023-01-22T05:46:21.015Z,19
2023-01-22T05:47:20.871Z,17
2023-01-22T05:48:20.845Z,15
2023-01-22T05:49:21.015Z,15
2023-01-22T05:50:20.837Z,21
2023-01-22T05:51:20.920Z,19
2023-01-22T05:52:20.992Z,17
2023-01-22T05:53:20.854Z,15
2023-01-22T05:54:20.851Z,18
2023-01-22T05:55:20.861Z,20
2023-01-22T05:56:20.838Z,20
2023-01-22T05:57:20.838Z,17
2023-01-22T05:58:20.844Z,17
2023-01-22T05:59:20.847Z,19
2023-01-22T06:00:21.030Z,18
2023-01-22T06:01:20.847Z,19
2023-01-22T06:02:20.902Z,19
2023-01-22T06:03:20.868Z,16
2023-01-22T06:04:20.843Z,17
2023-01-22T06:05:20.903Z,17
2023-01-22T06:06:20.852Z,18
2023-01-22T06:07:20.843Z,16
2023-01-22T06:08:20.966Z,17
2023-01-22T06:09:20.875Z,19
2023-01-22T06:10:20.937Z,17
2023-01-22T06:12:21.146Z,20
2023-01-22T06:14:20.839Z,17
2023-01-22T06:15:20.903Z,19
2023-01-22T06:16:20.868Z,17
2023-01-22T06:17:20.843Z,19
2023-01-22T06:18:20.855Z,18
2023-01-22T06:19:20.845Z,18
2023-01-22T06:20:20.856Z,16
2023-01-22T06:21:20.844Z,18
2023-01-22T06:22:20.861Z,15
2023-01-22T06:23:20.844Z,16
2023-01-22T06:24:20.970Z,20
2023-01-22T06:25:20.841Z,17
2023-01-22T06:26:20.855Z,15
2023-01-22T06:27:20.853Z,18
2023-01-22T06:28:20.845Z,21
2023-01-22T06:29:20.854Z,19
2023-01-22T06:30:20.843Z,17
2023-01-22T06:31:20.978Z,16
2023-01-22T06:32:20.843Z,17
2023-01-22T06:33:20.850Z,16
2023-01-22T06:34:20.877Z,16
2023-01-22T06:35:20.859Z,18
2023-01-22T06:36:20.851Z,16
2023-01-22T06:37:20.841Z,20
2023-01-22T06:38:20.840Z,16
2023-01-22T06:39:20.852Z,13
2023-01-22T06:40:21.116Z,18
2023-01-22T06:41:20.857Z,18
2023-01-22T06:42:20.939Z,17
2023-01-22T06:43:20.846Z,15
2023-01-22T06:44:20.861Z,19
2023-01-22T06:45:20.835Z,15
2023-01-22T06:46:21.040Z,15
2023-01-22T06:47:20.835Z,17
2023-01-22T06:48:20.841Z,15
2023-01-22T06:49:20.835Z,16
2023-01-22T06:50:20.878Z,16
2023-01-22T06:51:20.972Z,16
2023-01-22T06:52:20.844Z,15
2023-01-22T06:53:20.839Z,19
2023-01-22T06:54:20.841Z,14
2023-01-22T06:55:20.966Z,16
2023-01-22T06:56:20.863Z,17
2023-01-22T06:57:20.858Z,16
2023-01-22T06:58:20.838Z,16
2023-01-22T06:59:20.832Z,20
2023-01-22T07:00:21.327Z,20
2023-01-22T07:01:20.879Z,19
2023-01-22T07:02:20.849Z,17
2023-01-22T07:03:20.877Z,16
2023-01-22T07:04:20.838Z,14
2023-01-22T07:05:20.835Z,17
2023-01-22T07:06:20.833Z,16
2023-01-22T07:07:20.836Z,18
2023-01-22T07:08:20.841Z,17
2023-01-22T07:09:20.831Z,21
2023-01-22T07:10:21.068Z,18
2023-01-22T07:11:20.839Z,19
2023-01-22T07:12:20.834Z,18
2023-01-22T07:13:20.836Z,18
2023-01-22T07:14:35.670Z,20
2023-01-22T07:15:20.849Z,18
2023-01-22T07:16:20.921Z,15
2023-01-22T07:17:20.898Z,19
2023-01-22T07:18:20.848Z,15
2023-01-22T07:19:20.839Z,17
2023-01-22T07:20:20.849Z,18
2023-01-22T07:22:20.975Z,18
2023-01-22T07:23:20.833Z,14
2023-01-22T07:24:20.839Z,22
2023-01-22T07:25:20.841Z,17
2023-01-22T07:27:20.823Z,16
2023-01-22T07:28:20.843Z,20
2023-01-22T07:29:20.845Z,18
2023-01-22T07:30:21.029Z,17
2023-01-22T07:31:21.007Z,15
2023-01-22T07:32:20.843Z,17
2023-01-22T07:34:20.827Z,15
2023-01-22T07:35:20.845Z,15
2023-01-22T07:36:20.898Z,17
2023-01-22T07:37:20.836Z,17
2023-01-22T07:38:20.836Z,18
2023-01-22T07:39:20.849Z,20
2023-01-22T07:40:20.840Z,17
2023-01-22T07:42:20.833Z,14
2023-01-22T07:43:20.836Z,15
2023-01-22T07:44:20.833Z,16
2023-01-22T07:45:20.857Z,17
2023-01-22T07:47:20.841Z,15
2023-01-22T07:48:20.847Z,16
2023-01-22T07:49:20.839Z,17
2023-01-22T07:50:21.119Z,17
2023-01-22T07:51:20.973Z,20
2023-01-22T07:52:20.825Z,17
2023-01-22T07:53:20.832Z,17
2023-01-22T07:54:20.823Z,20
2023-01-22T07:55:20.828Z,18
2023-01-22T07:56:20.829Z,15
2023-01-22T07:59:20.831Z,14
2023-01-22T08:00:21.180Z,15
2023-01-22T08:01:20.834Z,16
2023-01-22T08:02:20.898Z,17
2023-01-22T08:03:20.835Z,17
2023-01-22T08:04:20.832Z,17
2023-01-22T08:05:20.824Z,17
2023-01-22T08:06:20.884Z,20
2023-01-22T08:07:20.826Z,17
2023-01-22T08:08:20.835Z,17
2023-01-22T08:09:20.843Z,16
2023-01-22T08:10:21.236Z,21
2023-01-22T08:11:20.820Z,16
2023-01-22T08:12:20.821Z,16
2023-01-22T08:13:20.826Z,19
2023-01-22T08:14:20.830Z,16
2023-01-22T08:15:20.847Z,17
2023-01-22T08:16:20.874Z,15
2023-01-22T08:17:20.842Z,15
2023-01-22T08:18:22.900Z,13
2023-01-22T08:19:20.819Z,16
2023-01-22T08:20:21.194Z,18
2023-01-22T08:21:20.833Z,21
2023-01-22T08:22:20.840Z,16
2023-01-22T08:23:21.989Z,20
2023-01-22T08:24:20.824Z,18
2023-01-22T08:25:20.820Z,16
2023-01-22T08:26:20.834Z,15
2023-01-22T08:27:20.829Z,20
2023-01-22T08:28:20.941Z,17
2023-01-22T08:29:20.835Z,18
2023-01-22T08:30:21.052Z,13
2023-01-22T08:31:27.907Z,15
2023-01-22T08:32:20.871Z,16
2023-01-22T08:33:20.825Z,16
2023-01-22T08:34:20.820Z,17
2023-01-22T08:35:20.819Z,18
2023-01-22T08:37:20.811Z,21
2023-01-22T08:38:20.827Z,18
2023-01-22T08:39:20.837Z,20
2023-01-22T08:40:20.843Z,18
2023-01-22T08:41:20.880Z,18
2023-01-22T08:42:20.819Z,20
2023-01-22T08:43:20.828Z,18
2023-01-22T08:44:20.824Z,20
2023-01-22T08:45:20.815Z,13
2023-01-22T08:46:20.881Z,16
2023-01-22T08:47:20.809Z,18
2023-01-22T08:48:20.821Z,19
2023-01-22T08:49:20.824Z,16
2023-01-22T08:50:20.989Z,16
2023-01-22T08:51:20.887Z,15
2023-01-22T08:52:20.844Z,18
2023-01-22T08:53:20.809Z,15
2023-01-22T08:54:20.830Z,15
2023-01-22T08:55:20.811Z,15
2023-01-22T08:56:20.814Z,16
2023-01-22T08:57:20.821Z,19
2023-01-22T08:58:20.829Z,16
2023-01-22T08:59:20.966Z,12
2023-01-22T09:00:20.817Z,16
2023-01-22T09:01:20.888Z,15
2023-01-22T09:02:20.867Z,16
2023-01-22T09:03:20.817Z,17
2023-01-22T09:04:20.819Z,16
2023-01-22T09:05:20.826Z,18
2023-01-22T09:06:20.886Z,15
2023-01-22T09:07:20.819Z,21
2023-01-22T09:08:20.807Z,16
2023-01-22T09:09:20.822Z,13
2023-01-22T09:10:22.082Z,17
2023-01-22T09:11:20.812Z,16
2023-01-22T09:12:20.824Z,17
2023-01-22T09:14:20.857Z,16
2023-01-22T09:15:20.840Z,19
2023-01-22T09:16:20.876Z,15
2023-01-22T09:17:20.811Z,17
2023-01-22T09:18:20.811Z,18
2023-01-22T09:19:20.823Z,18
2023-01-22T09:20:21.117Z,21
2023-01-22T09:22:20.809Z,14
2023-01-22T09:23:20.820Z,15
2023-01-22T09:24:20.821Z,16
2023-01-22T09:25:20.801Z,15
2023-01-22T09:27:20.801Z,14
2023-01-22T09:28:20.807Z,16
2023-01-22T09:29:20.801Z,16
2023-01-22T09:30:21.276Z,13
2023-01-22T09:31:20.909Z,14
2023-01-22T09:32:20.799Z,15
2023-01-22T09:33:20.834Z,14
2023-01-22T09:35:20.800Z,16
2023-01-22T09:36:20.805Z,14
2023-01-22T09:37:20.813Z,14
2023-01-22T09:38:20.809Z,15
2023-01-22T09:40:20.802Z,16
2023-01-22T09:41:20.808Z,13
2023-01-22T09:42:20.815Z,12
2023-01-22T09:43:20.801Z,15
2023-01-22T09:44:20.816Z,15
2023-01-22T09:45:20.809Z,16
2023-01-22T09:46:20.866Z,18
2023-01-22T09:47:20.814Z,15
2023-01-22T09:48:20.812Z,15
2023-01-22T09:49:20.839Z,18
2023-01-22T09:50:21.166Z,15
2023-01-22T09:51:20.809Z,15
2023-01-22T09:52:20.810Z,16
2023-01-22T09:53:20.803Z,14
2023-01-22T09:54:20.813Z,13
2023-01-22T09:55:20.802Z,16
2023-01-22T09:56:20.842Z,16
2023-01-22T09:58:20.804Z,14
2023-01-22T09:59:20.801Z,15
2023-01-22T10:00:21.029Z,19
2023-01-22T10:01:20.960Z,14
2023-01-22T10:02:20.840Z,16
2023-01-22T10:03:22.709Z,16
2023-01-22T10:04:20.809Z,17
2023-01-22T10:05:20.796Z,14
2023-01-22T10:06:20.803Z,20
2023-01-22T10:07:20.816Z,15
2023-01-22T10:08:20.792Z,17
2023-01-22T10:09:20.796Z,16
2023-01-22T10:10:21.098Z,16
2023-01-22T10:11:20.809Z,18
2023-01-22T10:12:20.833Z,17
2023-01-22T10:13:20.821Z,14
2023-01-22T10:14:20.806Z,16
2023-01-22T10:15:20.807Z,16
2023-01-22T10:16:20.848Z,15
2023-01-22T10:18:20.968Z,14
2023-01-22T10:19:20.802Z,15
2023-01-22T10:20:20.971Z,16
2023-01-22T10:21:20.859Z,20
2023-01-22T10:22:20.800Z,16
2023-01-22T10:23:20.806Z,14
2023-01-22T10:24:20.824Z,15
2023-01-22T10:25:20.812Z,14
2023-01-22T10:26:20.797Z,16
2023-01-22T10:27:20.810Z,15
2023-01-22T10:28:20.795Z,17
2023-01-22T10:29:20.790Z,14
2023-01-22T10:30:21.073Z,18
2023-01-22T10:31:21.967Z,19
2023-01-22T10:32:20.921Z,16
2023-01-22T10:34:20.798Z,12
2023-01-22T10:35:20.813Z,15
2023-01-22T10:36:20.802Z,12
2023-01-22T10:37:20.792Z,16
2023-01-22T10:38:20.792Z,14
2023-01-22T10:39:20.796Z,13
2023-01-22T10:40:20.938Z,15
2023-01-22T10:41:20.796Z,14
2023-01-22T10:42:20.796Z,14
2023-01-22T10:43:20.802Z,16
2023-01-22T10:44:20.814Z,15
2023-01-22T10:45:20.795Z,14
2023-01-22T10:46:20.940Z,14
2023-01-22T10:47:21.018Z,16
2023-01-22T10:48:20.785Z,15
2023-01-22T10:49:20.797Z,13
2023-01-22T10:50:21.075Z,14
2023-01-22T10:51:20.942Z,16
2023-01-22T10:52:20.797Z,13
2023-01-22T10:54:20.830Z,20
2023-01-22T10:55:20.795Z,16
2023-01-22T10:56:20.800Z,15
2023-01-22T10:57:20.812Z,15
2023-01-22T10:58:20.792Z,12
2023-01-22T10:59:20.815Z,18
2023-01-22T11:00:21.153Z,14
2023-01-22T11:02:20.862Z,14
2023-01-22T11:04:20.809Z,15
2023-01-22T11:05:20.799Z,14
2023-01-22T11:06:20.785Z,16
2023-01-22T11:07:20.797Z,14
2023-01-22T11:08:20.790Z,16
2023-01-22T11:09:20.796Z,15
2023-01-22T11:10:20.992Z,16
2023-01-22T11:11:20.852Z,13
2023-01-22T11:12:20.796Z,15
2023-01-22T11:13:20.790Z,15
2023-01-22T11:14:20.792Z,15
2023-01-22T11:16:20.799Z,13
2023-01-22T11:17:20.814Z,13
2023-01-22T11:18:20.806Z,16
2023-01-22T11:19:35.972Z,13
2023-01-22T11:20:21.274Z,14
2023-01-22T11:21:20.789Z,15
2023-01-22T11:22:20.784Z,17
2023-01-22T11:23:21.461Z,14
2023-01-22T11:24:20.789Z,15
2023-01-22T11:25:20.791Z,16
2023-01-22T11:26:20.808Z,14
2023-01-22T11:27:20.802Z,16
2023-01-22T11:28:20.786Z,16
2023-01-22T11:29:20.797Z,20
2023-01-22T11:31:20.910Z,18
2023-01-22T11:32:20.792Z,17
2023-01-22T11:33:20.816Z,15
2023-01-22T11:34:20.942Z,14
2023-01-22T11:35:20.811Z,19
2023-01-22T11:36:20.801Z,17
2023-01-22T11:37:20.796Z,17
2023-01-22T11:38:20.793Z,15
2023-01-22T11:39:20.801Z,17
2023-01-22T11:41:20.789Z,18
2023-01-22T11:42:20.785Z,15
2023-01-22T11:43:20.783Z,15
2023-01-22T11:44:20.787Z,15
2023-01-22T11:45:20.801Z,15
2023-01-22T11:46:20.860Z,15
2023-01-22T11:47:20.792Z,16
2023-01-22T11:48:20.787Z,18
2023-01-22T11:49:20.792Z,20
2023-01-22T11:50:21.176Z,18
2023-01-22T11:51:20.988Z,14
2023-01-22T11:52:20.796Z,14
2023-01-22T11:53:20.789Z,15
2023-01-22T11:54:20.782Z,17
2023-01-22T11:55:20.784Z,16
2023-01-22T11:56:20.845Z,16
2023-01-22T11:57:20.780Z,17
2023-01-22T11:58:20.787Z,15
2023-01-22T11:59:20.787Z,18
2023-01-22T12:00:21.150Z,20
2023-01-22T12:01:20.784Z,20
2023-01-22T12:02:20.836Z,21
2023-01-22T12:03:20.786Z,21
2023-01-22T12:04:20.795Z,18
2023-01-22T12:05:20.917Z,19
2023-01-22T12:06:20.781Z,18
2023-01-22T12:07:20.785Z,18
2023-01-22T12:08:20.780Z,19
2023-01-22T12:09:20.810Z,17
2023-01-22T12:10:21.235Z,18
2023-01-22T12:11:20.782Z,17
2023-01-22T12:12:20.785Z,17
2023-01-22T12:13:20.795Z,20
2023-01-22T12:14:20.789Z,25
2023-01-22T12:15:20.796Z,18
2023-01-22T12:16:20.854Z,20
2023-01-22T12:17:20.786Z,22
2023-01-22T12:18:20.781Z,15
2023-01-22T12:19:20.787Z,19
2023-01-22T12:20:21.068Z,20
2023-01-22T12:22:20.781Z,18
2023-01-22T12:23:20.980Z,20
2023-01-22T12:24:20.781Z,19
2023-01-22T12:26:20.795Z,18
2023-01-22T12:27:20.794Z,15
2023-01-22T12:28:20.779Z,17
2023-01-22T12:29:20.778Z,18
2023-01-22T12:30:20.922Z,16
2023-01-22T12:31:20.849Z,20
2023-01-22T12:32:20.775Z,21
2023-01-22T12:33:20.791Z,19
2023-01-22T12:34:20.796Z,18
2023-01-22T12:35:20.797Z,17
2023-01-22T12:36:21.029Z,17
2023-01-22T12:37:20.791Z,25
2023-01-22T12:38:20.780Z,20
2023-01-22T12:39:20.783Z,20
2023-01-22T12:40:20.988Z,19
2023-01-22T12:41:20.841Z,25
2023-01-22T12:42:20.795Z,22
2023-01-22T12:43:20.778Z,20
2023-01-22T12:44:20.787Z,18
2023-01-22T12:45:20.782Z,18
2023-01-22T12:46:20.845Z,21
2023-01-22T12:47:20.810Z,21
2023-01-22T12:48:20.788Z,21
2023-01-22T12:49:20.791Z,20
2023-01-22T12:51:20.793Z,20
2023-01-22T12:52:20.784Z,17
2023-01-22T12:53:20.777Z,21
2023-01-22T12:54:20.783Z,19
2023-01-22T12:55:20.783Z,20
2023-01-22T12:56:20.829Z,16
2023-01-22T12:57:20.790Z,19
2023-01-22T12:58:20.795Z,22
2023-01-22T12:59:20.776Z,19
2023-01-22T13:00:20.901Z,21
2023-01-22T13:01:20.773Z,21
2023-01-22T13:02:20.870Z,17
2023-01-22T13:03:30.957Z,19
2023-01-22T13:04:20.782Z,18
2023-01-22T13:05:20.789Z,21
2023-01-22T13:06:20.778Z,23
2023-01-22T13:07:20.893Z,25
2023-01-22T13:08:20.817Z,24
2023-01-22T13:09:20.927Z,17
2023-01-22T13:10:21.429Z,25
2023-01-22T13:11:20.781Z,25
2023-01-22T13:12:20.780Z,23
2023-01-22T13:13:20.767Z,19
2023-01-22T13:15:20.782Z,18
2023-01-22T13:16:20.837Z,23
2023-01-22T13:17:20.801Z,17
2023-01-22T13:18:20.770Z,20
2023-01-22T13:19:20.775Z,19
2023-01-22T13:20:21.151Z,23
2023-01-22T13:21:20.765Z,17
2023-01-22T13:22:20.783Z,17
2023-01-22T13:23:21.691Z,19
2023-01-22T13:24:20.781Z,22
2023-01-22T13:25:20.767Z,18
2023-01-22T13:26:20.766Z,21
2023-01-22T13:27:20.766Z,18
2023-01-22T13:28:20.771Z,20
2023-01-22T13:29:20.782Z,24
2023-01-22T13:30:21.124Z,20
2023-01-22T13:31:20.944Z,24
2023-01-22T13:32:20.789Z,22
2023-01-22T13:33:20.771Z,21
2023-01-22T13:34:20.773Z,20
2023-01-22T13:35:20.769Z,22
2023-01-22T13:36:20.842Z,25
2023-01-22T13:37:20.767Z,25
2023-01-22T13:38:20.889Z,19
2023-01-22T13:39:20.765Z,22
2023-01-22T13:40:21.085Z,24
2023-01-22T13:41:20.766Z,21
2023-01-22T13:42:20.772Z,20
2023-01-22T13:43:20.791Z,23
2023-01-22T13:44:20.770Z,22
2023-01-22T13:45:20.780Z,21
2023-01-22T13:47:20.766Z,21
2023-01-22T13:48:20.780Z,20
2023-01-22T13:49:20.773Z,17
2023-01-22T13:50:21.208Z,24
2023-01-22T13:51:20.855Z,17
2023-01-22T13:52:20.768Z,24
2023-01-22T13:53:20.779Z,22
2023-01-22T13:54:20.767Z,20
2023-01-22T13:55:20.761Z,18
2023-01-22T13:56:20.775Z,22
2023-01-22T13:57:20.782Z,24
2023-01-22T13:58:20.760Z,21
2023-01-22T13:59:20.768Z,21
2023-01-22T14:00:20.768Z,15
2023-01-22T14:01:20.765Z,21
2023-01-22T14:02:20.876Z,23
2023-01-22T14:03:20.760Z,22
2023-01-22T14:04:20.770Z,18
2023-01-22T14:05:20.763Z,21
2023-01-22T14:06:20.767Z,20
2023-01-22T14:07:20.758Z,18
2023-01-22T14:08:20.767Z,24
2023-01-22T14:09:20.894Z,19
2023-01-22T14:10:21.197Z,21
2023-01-22T14:11:20.779Z,21
2023-01-22T14:12:20.770Z,21
2023-01-22T14:13:20.780Z,27
2023-01-22T14:14:20.777Z,24
2023-01-22T14:15:20.757Z,24
2023-01-22T14:16:20.912Z,23
2023-01-22T14:17:20.769Z,24
2023-01-22T14:18:20.769Z,24
2023-01-22T14:19:20.782Z,23
2023-01-22T14:20:21.152Z,23
2023-01-22T14:21:20.763Z,24
2023-01-22T14:22:20.769Z,23
2023-01-22T14:23:20.776Z,25
2023-01-22T14:24:20.754Z,22
2023-01-22T14:25:20.772Z,23
2023-01-22T14:26:20.756Z,23
2023-01-22T14:27:20.762Z,21
2023-01-22T14:28:20.763Z,22
2023-01-22T14:29:20.763Z,21
2023-01-22T14:30:21.183Z,20
2023-01-22T14:31:20.855Z,23
2023-01-22T14:32:20.765Z,22
2023-01-22T14:33:23.829Z,20
2023-01-22T14:34:20.751Z,19
2023-01-22T14:35:20.754Z,22
2023-01-22T14:36:20.770Z,21
2023-01-22T14:37:20.768Z,21
2023-01-22T14:38:20.763Z,26
2023-01-22T14:39:20.769Z,19
2023-01-22T14:40:21.255Z,23
2023-01-22T14:41:20.757Z,23
2023-01-22T14:42:20.760Z,23
2023-01-22T14:43:20.895Z,20
2023-01-22T14:44:20.762Z,23
2023-01-22T14:45:20.765Z,22
2023-01-22T14:46:20.761Z,21
2023-01-22T14:47:20.756Z,22
2023-01-22T14:48:20.758Z,23
2023-01-22T14:49:20.769Z,23
2023-01-22T14:50:21.128Z,24
2023-01-22T14:51:20.894Z,24
2023-01-22T14:52:20.766Z,25
2023-01-22T14:53:20.763Z,23
2023-01-22T14:54:20.783Z,20
2023-01-22T14:55:20.756Z,21
2023-01-22T14:56:20.766Z,25
2023-01-22T14:57:20.760Z,25
2023-01-22T14:58:20.753Z,29
2023-01-22T14:59:21.065Z,26